createdAt,value
2022-10-03T00:00:27.538Z,9.40
2022-10-03T00:03:13.144Z,9.40
2022-10-03T00:06:02.371Z,9.40
2022-10-03T00:09:00.279Z,9.40
2022-10-03T00:11:42.433Z,9.30
2022-10-03T00:14:57.274Z,9.40
2022-10-03T00:18:07.350Z,9.40
2022-10-03T00:20:50.161Z,9.30
2022-10-03T00:23:36.030Z,9.30
2022-10-03T00:26:30.627Z,9.30
2022-10-03T00:29:31.698Z,9.30
2022-10-03T00:32:06.261Z,9.30
2022-10-03T00:34:45.965Z,9.30
2022-10-03T00:37:33.676Z,9.40
2022-10-03T00:40:28.251Z,9.40
2022-10-03T00:43:13.778Z,9.40
2022-10-03T00:46:19.984Z,9.30
2022-10-03T00:49:07.741Z,9.30
2022-10-03T00:51:56.455Z,9.30
2022-10-03T00:54:35.226Z,9.40
2022-10-03T00:57:19.633Z,9.30
2022-10-03T00:59:55.657Z,9.30
2022-10-03T01:02:41.390Z,9.30
2022-10-03T01:05:20.357Z,9.20
2022-10-03T01:08:31.697Z,9.20
2022-10-03T01:11:15.292Z,9.20
2022-10-03T01:14:12.762Z,9.20
2022-10-03T01:16:58.934Z,9.10
2022-10-03T01:19:35.831Z,9.00
2022-10-03T01:22:17.906Z,9.00
2022-10-03T01:25:18.288Z,9.00
2022-10-03T01:28:15.462Z,9.00
2022-10-03T01:30:50.025Z,9.00
2022-10-03T01:33:32.018Z,9.00
2022-10-03T01:36:14.962Z,8.90
2022-10-03T01:38:55.035Z,8.80
2022-10-03T01:41:28.485Z,8.90
2022-10-03T01:44:02.291Z,8.80
2022-10-03T01:46:39.977Z,8.80
2022-10-03T01:49:20.175Z,8.80
2022-10-03T01:52:00.392Z,8.80
2022-10-03T01:54:33.784Z,8.90
2022-10-03T01:57:02.915Z,8.90
2022-10-03T01:59:42.293Z,8.90
2022-10-03T02:02:33.665Z,8.90
2022-10-03T02:05:09.798Z,8.90
2022-10-03T02:07:50.972Z,8.90
2022-10-03T02:10:41.506Z,8.90
2022-10-03T02:13:13.786Z,8.90
2022-10-03T02:15:43.630Z,9.00
2022-10-03T02:18:23.632Z,9.00
2022-10-03T02:21:16.149Z,9.00
2022-10-03T02:23:46.175Z,9.00
2022-10-03T02:26:40.658Z,9.00
2022-10-03T02:29:29.531Z,9.00
2022-10-03T02:32:39.233Z,9.00
2022-10-03T02:35:11.536Z,9.00
2022-10-03T02:37:56.322Z,9.10
2022-10-03T02:40:31.817Z,9.10
2022-10-03T02:43:35.901Z,9.00
2022-10-03T02:46:19.403Z,9.00
2022-10-03T02:49:18.788Z,9.00
2022-10-03T02:51:48.379Z,9.00
2022-10-03T02:54:29.997Z,9.00
2022-10-03T02:57:30.502Z,9.00
2022-10-03T03:00:12.245Z,9.00
2022-10-03T03:02:59.006Z,9.10
2022-10-03T03:05:40.907Z,9.00
2022-10-03T03:08:38.762Z,9.00
2022-10-03T03:11:18.753Z,9.10
2022-10-03T03:14:29.478Z,9.10
2022-10-03T03:17:15.113Z,9.00
2022-10-03T03:19:49.173Z,8.90
2022-10-03T03:22:54.148Z,8.90
2022-10-03T03:25:44.113Z,8.80
2022-10-03T03:28:36.483Z,8.80
2022-10-03T03:31:33.458Z,8.70
2022-10-03T03:34:07.582Z,8.70
2022-10-03T03:36:41.621Z,8.60
2022-10-03T03:39:29.980Z,8.60
2022-10-03T03:42:34.881Z,8.50
2022-10-03T03:45:06.301Z,8.70
2022-10-03T03:48:03.362Z,8.50
2022-10-03T03:51:06.086Z,8.30
2022-10-03T03:53:45.118Z,8.20
2022-10-03T03:56:33.998Z,8.10
2022-10-03T03:59:13.625Z,8.10
2022-10-03T04:02:14.600Z,8.00
2022-10-03T04:05:30.680Z,8.00
2022-10-03T04:08:26.214Z,7.90
2022-10-03T04:11:12.462Z,8.00
2022-10-03T04:13:57.757Z,8.00
2022-10-03T04:16:52.419Z,8.00
2022-10-03T04:19:32.778Z,8.10
2022-10-03T04:22:12.065Z,8.10
2022-10-03T04:24:50.891Z,8.00
2022-10-03T04:27:42.289Z,7.90
2022-10-03T04:30:46.581Z,7.90
2022-10-03T04:33:29.396Z,7.90
2022-10-03T04:36:31.957Z,7.80
2022-10-03T04:39:22.961Z,7.70
2022-10-03T04:42:28.254Z,7.70
2022-10-03T04:45:13.692Z,7.70
2022-10-03T04:48:33.343Z,7.70
2022-10-03T04:51:18.564Z,7.80
2022-10-03T04:54:03.339Z,7.80
2022-10-03T04:56:42.695Z,7.80
2022-10-03T04:59:28.220Z,7.70
2022-10-03T05:02:16.327Z,7.70
2022-10-03T05:05:11.666Z,7.70
2022-10-03T05:07:48.659Z,7.70
2022-10-03T05:10:33.755Z,7.60
2022-10-03T05:13:39.565Z,7.70
2022-10-03T05:16:22.158Z,7.70
2022-10-03T05:18:55.783Z,7.70
2022-10-03T05:21:31.596Z,7.70
2022-10-03T05:24:35.263Z,7.70
2022-10-03T05:27:05.577Z,7.80
2022-10-03T05:29:51.353Z,7.90
2022-10-03T05:32:39.832Z,7.90
2022-10-03T05:35:29.343Z,8.10
2022-10-03T05:37:56.100Z,8.20
2022-10-03T05:40:25.700Z,8.30
2022-10-03T05:42:56.125Z,8.30
2022-10-03T05:45:35.050Z,8.30
2022-10-03T05:48:08.081Z,8.30
2022-10-03T05:50:42.013Z,8.30
2022-10-03T05:53:19.876Z,8.30
2022-10-03T05:56:03.056Z,8.30
2022-10-03T05:58:51.971Z,8.40
2022-10-03T06:01:49.921Z,8.40
2022-10-03T06:04:53.588Z,8.50
2022-10-03T06:07:27.015Z,8.50
2022-10-03T06:10:18.796Z,8.50
2022-10-03T06:12:56.771Z,8.60
2022-10-03T06:15:39.328Z,8.80
2022-10-03T06:18:35.269Z,8.90
2022-10-03T06:21:17.124Z,9.10
2022-10-03T06:24:11.792Z,9.30
2022-10-03T06:27:16.267Z,9.50
2022-10-03T06:29:59.450Z,9.80
2022-10-03T06:32:41.677Z,10.10
2022-10-03T06:35:29.636Z,10.20
2022-10-03T06:38:36.390Z,10.30
2022-10-03T06:41:51.278Z,10.30
2022-10-03T06:44:42.618Z,10.40
2022-10-03T06:47:24.756Z,10.30
2022-10-03T06:50:35.813Z,10.30
2022-10-03T06:53:37.978Z,10.30
2022-10-03T06:56:31.862Z,10.40
2022-10-03T06:59:07.357Z,10.40
2022-10-03T07:02:23.637Z,10.50
2022-10-03T07:05:16.968Z,10.50
2022-10-03T07:08:08.299Z,10.50
2022-10-03T07:10:53.598Z,10.50
2022-10-03T07:13:59.050Z,10.70
2022-10-03T07:16:35.163Z,10.90
2022-10-03T07:19:24.147Z,11.80
2022-10-03T07:22:13.553Z,13.00
2022-10-03T07:25:13.999Z,13.80
2022-10-03T07:28:17.971Z,14.60
2022-10-03T07:30:50.532Z,14.70
2022-10-03T07:33:49.745Z,15.20
2022-10-03T07:36:48.969Z,15.90
2022-10-03T07:39:54.962Z,16.40
2022-10-03T07:42:30.931Z,16.60
2022-10-03T07:48:13.319Z,17.00
2022-10-03T07:51:09.622Z,17.30
2022-10-03T07:54:00.769Z,17.40
2022-10-03T07:56:56.914Z,17.80
2022-10-03T07:59:45.264Z,18.20
2022-10-03T08:02:50.642Z,17.90
2022-10-03T08:05:25.276Z,18.00
2022-10-03T08:08:13.166Z,17.90
2022-10-03T08:11:01.795Z,18.00
2022-10-03T08:14:00.692Z,17.90
2022-10-03T08:16:45.838Z,18.10
2022-10-03T08:19:40.474Z,17.70
2022-10-03T08:22:33.644Z,17.70
2022-10-03T08:25:35.344Z,17.90
2022-10-03T08:28:19.200Z,18.10
2022-10-03T08:31:14.712Z,18.00
2022-10-03T08:33:50.568Z,18.00
2022-10-03T08:36:54.126Z,17.90
2022-10-03T08:39:45.739Z,17.40
2022-10-03T08:42:39.635Z,16.60
2022-10-03T08:45:38.137Z,16.10
2022-10-03T08:48:45.199Z,15.90
2022-10-03T08:51:38.227Z,15.60
2022-10-03T08:54:17.578Z,15.50
2022-10-03T08:56:47.208Z,15.20
2022-10-03T08:59:24.404Z,15.20
2022-10-03T09:02:19.370Z,15.20
2022-10-03T09:04:58.274Z,15.30
2022-10-03T09:07:40.118Z,15.20
2022-10-03T09:10:58.250Z,15.10
2022-10-03T09:13:33.737Z,15.00
2022-10-03T09:16:25.132Z,15.10
2022-10-03T09:19:01.173Z,15.00
2022-10-03T09:21:39.390Z,14.90
2022-10-03T09:24:25.521Z,15.00
2022-10-03T09:26:58.587Z,15.00
2022-10-03T09:29:44.175Z,14.90
2022-10-03T09:32:41.645Z,15.00
2022-10-03T09:35:34.569Z,15.10
2022-10-03T09:38:34.176Z,15.00
2022-10-03T09:41:34.347Z,15.10
2022-10-03T09:44:29.254Z,15.10
2022-10-03T09:47:23.258Z,15.30
2022-10-03T09:50:28.047Z,15.30
2022-10-03T09:53:17.429Z,15.40
2022-10-03T09:56:05.588Z,15.60
2022-10-03T09:59:07.994Z,15.60
2022-10-03T10:02:07.203Z,15.70
2022-10-03T10:04:58.616Z,15.60
2022-10-03T10:07:53.127Z,15.70
2022-10-03T10:10:52.010Z,15.80
2022-10-03T10:14:06.227Z,15.80
2022-10-03T10:16:52.109Z,15.80
2022-10-03T10:19:37.955Z,15.90
2022-10-03T10:22:19.166Z,15.80
2022-10-03T10:24:49.834Z,16.00
2022-10-03T10:27:35.233Z,16.10
2022-10-03T10:30:15.561Z,16.10
2022-10-03T10:33:19.354Z,16.10
2022-10-03T10:36:07.521Z,16.20
2022-10-03T10:38:48.989Z,16.20
2022-10-03T10:41:39.207Z,16.10
2022-10-03T10:44:38.685Z,16.20
2022-10-03T10:47:33.542Z,16.20
2022-10-03T10:50:31.632Z,16.10
2022-10-03T10:53:37.981Z,16.00
2022-10-03T10:56:27.389Z,16.00
2022-10-03T10:59:16.420Z,16.10
2022-10-03T11:02:08.898Z,16.40
2022-10-03T11:04:53.547Z,16.50
2022-10-03T11:07:20.377Z,16.60
2022-10-03T11:10:01.612Z,16.70
2022-10-03T11:13:05.128Z,16.80
2022-10-03T11:15:36.490Z,16.80
2022-10-03T11:18:22.493Z,16.90
2022-10-03T11:21:17.826Z,16.90
2022-10-03T11:24:03.177Z,17.00
2022-10-03T11:26:55.317Z,16.70
2022-10-03T11:29:59.432Z,16.50
2022-10-03T11:32:53.489Z,16.50
2022-10-03T11:36:07.222Z,16.40
2022-10-03T11:38:51.678Z,16.40
2022-10-03T11:41:36.565Z,16.40
2022-10-03T11:44:15.833Z,16.40
2022-10-03T11:46:51.476Z,16.50
2022-10-03T11:49:55.200Z,16.50
2022-10-03T11:52:56.101Z,16.70
2022-10-03T11:55:38.426Z,17.00
2022-10-03T11:58:27.385Z,17.20
2022-10-03T12:01:17.783Z,17.30
2022-10-03T12:03:53.689Z,17.40
2022-10-03T12:06:51.229Z,17.50
2022-10-03T12:09:32.168Z,17.50
2022-10-03T12:12:03.159Z,17.60
2022-10-03T12:14:59.312Z,17.70
2022-10-03T12:17:34.834Z,17.70
2022-10-03T12:20:19.661Z,17.60
2022-10-03T12:23:15.229Z,17.60
2022-10-03T12:25:45.968Z,17.60
2022-10-03T12:28:24.112Z,17.50
2022-10-03T12:30:58.041Z,17.40
2022-10-03T12:33:54.800Z,17.30
2022-10-03T12:36:33.125Z,17.30
2022-10-03T12:39:14.864Z,17.20
2022-10-03T12:41:50.513Z,17.10
2022-10-03T12:44:35.905Z,17.00
2022-10-03T12:47:44.021Z,17.10
2022-10-03T12:50:15.193Z,17.30
2022-10-03T12:53:19.593Z,17.30
2022-10-03T12:56:02.053Z,17.70
2022-10-03T12:58:50.380Z,18.00
2022-10-03T13:01:39.014Z,18.10
2022-10-03T13:04:47.841Z,18.10
2022-10-03T13:08:02.833Z,18.10
2022-10-03T13:11:02.726Z,18.10
2022-10-03T13:14:07.832Z,18.10
2022-10-03T13:17:07.473Z,18.20
2022-10-03T13:20:24.272Z,18.30
2022-10-03T13:23:14.230Z,18.30
2022-10-03T13:25:57.109Z,18.20
2022-10-03T13:28:53.849Z,18.10
2022-10-03T13:31:26.037Z,17.90
2022-10-03T13:33:58.547Z,18.00
2022-10-03T13:36:37.976Z,18.10
2022-10-03T13:39:20.170Z,18.10
2022-10-03T13:42:10.536Z,18.30
2022-10-03T13:44:54.407Z,18.30
2022-10-03T13:47:39.139Z,18.30
2022-10-03T13:50:15.418Z,18.40
2022-10-03T13:53:13.642Z,18.30
2022-10-03T13:55:53.930Z,18.20
2022-10-03T13:58:26.284Z,18.10
2022-10-03T14:01:07.531Z,17.90
2022-10-03T14:03:38.134Z,17.80
2022-10-03T14:06:20.455Z,17.90
2022-10-03T14:09:19.597Z,18.00
2022-10-03T14:11:56.263Z,18.00
2022-10-03T14:14:47.920Z,18.10
2022-10-03T14:17:33.428Z,18.20
2022-10-03T14:20:31.546Z,18.30
2022-10-03T14:23:23.635Z,18.40
2022-10-03T14:26:17.804Z,18.50
2022-10-03T14:29:06.412Z,18.60
2022-10-03T14:31:45.383Z,18.60
2022-10-03T14:34:28.014Z,18.40
2022-10-03T14:37:02.369Z,18.20
2022-10-03T14:39:55.131Z,18.00
2022-10-03T14:42:37.040Z,17.80
2022-10-03T14:45:11.396Z,17.50
2022-10-03T14:47:42.633Z,17.30
2022-10-03T14:50:20.724Z,17.30
2022-10-03T14:53:06.269Z,17.20
2022-10-03T14:55:43.856Z,17.20
2022-10-03T14:58:21.086Z,17.10
2022-10-03T15:00:55.417Z,17.10
2022-10-03T15:03:30.522Z,17.10
2022-10-03T15:05:57.477Z,17.00
2022-10-03T15:08:37.868Z,16.90
2022-10-03T15:11:06.515Z,17.00
2022-10-03T15:13:40.478Z,16.90
2022-10-03T15:16:09.576Z,16.80
2022-10-03T15:18:38.311Z,16.70
2022-10-03T15:21:09.658Z,16.60
2022-10-03T15:23:44.041Z,16.60
2022-10-03T15:26:21.320Z,16.50
2022-10-03T15:28:53.646Z,16.40
2022-10-03T15:31:32.487Z,16.30
2022-10-03T15:34:01.716Z,16.30
2022-10-03T15:36:37.463Z,16.20
2022-10-03T15:39:19.233Z,16.20
2022-10-03T15:41:56.827Z,16.20
2022-10-03T15:44:33.687Z,16.10
2022-10-03T15:47:13.229Z,16.20
2022-10-03T15:50:12.173Z,16.10
2022-10-03T15:52:49.582Z,16.20
2022-10-03T15:55:42.257Z,16.10
2022-10-03T15:58:18.791Z,16.10
2022-10-03T16:01:13.143Z,16.10
2022-10-03T16:04:04.681Z,16.00
2022-10-03T16:06:49.925Z,16.00
2022-10-03T16:09:27.558Z,16.00
2022-10-03T16:12:12.591Z,15.90
2022-10-03T16:14:51.594Z,15.80
2022-10-03T16:17:40.052Z,15.80
2022-10-03T16:20:25.677Z,15.70
2022-10-03T16:22:59.604Z,15.60
2022-10-03T16:25:39.255Z,15.50
2022-10-03T16:28:11.970Z,15.30
2022-10-03T16:30:45.686Z,15.20
2022-10-03T16:33:18.391Z,15.20
2022-10-03T16:35:50.521Z,15.00
2022-10-03T16:38:43.357Z,14.80
2022-10-03T16:41:24.885Z,14.80
2022-10-03T16:44:04.530Z,14.70
2022-10-03T16:46:38.345Z,14.50
2022-10-03T16:49:37.036Z,14.90
2022-10-03T16:52:10.036Z,14.90
2022-10-03T16:54:40.020Z,14.90
2022-10-03T16:57:18.822Z,14.70
2022-10-03T16:59:49.859Z,14.50
2022-10-03T17:02:25.352Z,14.30
2022-10-03T17:04:59.498Z,14.20
2022-10-03T17:07:36.990Z,14.00
2022-10-03T17:10:05.034Z,13.90
2022-10-03T17:12:40.373Z,13.80
2022-10-03T17:15:20.865Z,13.80
2022-10-03T17:18:15.803Z,13.70
2022-10-03T17:21:04.925Z,13.70
2022-10-03T17:23:39.094Z,13.60
2022-10-03T17:26:10.811Z,13.50
2022-10-03T17:29:07.977Z,13.50
2022-10-03T17:31:46.137Z,13.50
2022-10-03T17:34:21.258Z,13.50
2022-10-03T17:37:06.515Z,13.50
2022-10-03T17:39:55.556Z,13.40
2022-10-03T17:42:42.481Z,13.40
2022-10-03T17:45:30.498Z,13.40
2022-10-03T17:48:26.124Z,13.30
2022-10-03T17:51:03.153Z,13.30
2022-10-03T17:53:36.625Z,13.20
2022-10-03T17:56:21.110Z,13.20
2022-10-03T17:58:58.650Z,13.10
2022-10-03T18:01:34.100Z,13.10
2022-10-03T18:04:04.402Z,12.90
2022-10-03T18:06:36.051Z,12.90
2022-10-03T18:09:22.749Z,12.90
2022-10-03T18:11:50.726Z,12.80
2022-10-03T18:14:35.331Z,12.80
2022-10-03T18:17:19.535Z,12.80
2022-10-03T19:27:10.472Z,12.20
2022-10-03T19:29:53.945Z,12.10
2022-10-03T19:32:43.868Z,12.10
2022-10-03T19:35:15.327Z,12.00
2022-10-03T19:37:46.128Z,11.90
2022-10-03T19:40:35.882Z,11.90
2022-10-03T19:43:21.462Z,11.90
2022-10-03T19:46:04.517Z,11.80
2022-10-03T19:48:34.637Z,11.70
2022-10-03T19:51:21.619Z,11.70
2022-10-03T19:53:52.877Z,11.60
2022-10-03T19:56:22.253Z,11.60
2022-10-03T19:59:05.089Z,11.50
2022-10-03T20:01:43.627Z,11.50
2022-10-03T20:04:11.854Z,11.40
2022-10-03T20:06:46.065Z,11.30
2022-10-03T20:09:22.927Z,11.30
2022-10-03T20:11:56.916Z,11.40
2022-10-03T20:14:29.630Z,11.20
2022-10-03T20:17:02.178Z,11.10
2022-10-03T20:19:40.833Z,11.00
2022-10-03T20:22:07.812Z,10.90
2022-10-03T20:24:45.252Z,10.80
2022-10-03T20:27:39.408Z,10.80
2022-10-03T20:30:25.314Z,10.90
2022-10-03T20:32:56.313Z,10.80
2022-10-03T20:35:27.035Z,10.80
2022-10-03T20:37:54.043Z,10.80
2022-10-03T20:40:38.997Z,10.90
2022-10-03T20:43:41.621Z,10.90
2022-10-03T20:46:26.580Z,11.00
2022-10-03T20:49:11.907Z,11.10
2022-10-03T20:51:42.987Z,11.00
2022-10-03T20:54:14.077Z,10.90
2022-10-03T20:57:03.573Z,10.90
2022-10-03T21:00:00.230Z,10.90
2022-10-03T21:02:42.057Z,10.90
2022-10-03T21:05:40.664Z,10.90
2022-10-03T21:08:30.133Z,11.00
2022-10-03T21:11:15.167Z,11.00
2022-10-03T21:14:28.290Z,11.00
2022-10-03T21:16:56.166Z,11.00
2022-10-03T21:19:31.743Z,11.00
2022-10-03T21:22:07.622Z,11.00
2022-10-03T21:24:45.101Z,10.90
2022-10-03T21:27:15.563Z,10.90
2022-10-03T21:29:54.808Z,10.80
2022-10-03T21:32:21.925Z,10.80
2022-10-03T21:35:16.206Z,10.80
2022-10-03T21:37:50.793Z,10.70
2022-10-03T21:40:49.343Z,10.70
2022-10-03T21:43:50.385Z,10.80
2022-10-03T21:46:35.213Z,10.90
2022-10-03T21:49:23.922Z,10.90
2022-10-03T21:51:53.594Z,10.90
2022-10-03T21:54:39.172Z,11.00
2022-10-03T21:57:18.361Z,10.90
2022-10-03T22:00:11.002Z,10.90
2022-10-03T22:02:47.173Z,11.00
2022-10-03T22:05:37.172Z,11.00
2022-10-03T22:08:19.984Z,11.00
2022-10-03T22:11:08.862Z,11.00
2022-10-03T22:13:43.874Z,11.10
2022-10-03T22:16:29.376Z,11.10
2022-10-03T22:19:11.666Z,11.10
2022-10-03T22:22:04.973Z,11.10
2022-10-03T22:25:04.446Z,11.10
2022-10-03T22:27:56.553Z,11.10
2022-10-03T22:30:23.799Z,11.00
2022-10-03T22:32:59.396Z,11.10
2022-10-03T22:35:49.585Z,11.10
2022-10-03T22:38:18.747Z,11.00
2022-10-03T22:40:47.582Z,11.10
2022-10-03T22:43:15.822Z,11.20
2022-10-03T22:45:46.477Z,11.10
2022-10-03T22:48:19.892Z,11.00
2022-10-03T22:50:47.339Z,11.00
2022-10-03T22:53:19.462Z,11.00
2022-10-03T22:55:50.566Z,10.90
2022-10-03T22:58:20.297Z,10.80
2022-10-03T23:00:51.662Z,10.70
2022-10-03T23:03:25.714Z,10.70
2022-10-03T23:06:11.486Z,10.70
2022-10-03T23:08:43.849Z,10.80
2022-10-03T23:11:21.362Z,10.90
2022-10-03T23:13:48.854Z,10.80
2022-10-03T23:16:36.965Z,10.70
2022-10-03T23:19:34.925Z,10.70
2022-10-03T23:22:02.237Z,10.70
2022-10-03T23:24:32.437Z,10.60
2022-10-03T23:27:07.906Z,10.50
2022-10-03T23:29:34.886Z,10.50
2022-10-03T23:32:06.807Z,10.50
2022-10-03T23:34:36.768Z,10.50
2022-10-03T23:37:15.452Z,10.50
2022-10-03T23:39:57.126Z,10.60
2022-10-03T23:42:32.993Z,10.50
2022-10-03T23:45:11.734Z,10.60
2022-10-03T23:47:57.193Z,10.50
2022-10-03T23:50:39.109Z,10.40
2022-10-03T23:53:07.721Z,10.40
2022-10-03T23:55:39.776Z,10.40
2022-10-03T23:58:21.939Z,10.50
